Terminal Aerodrome Forecast
Issued by NWS Nashville, TN

Home | Current Version | Previous Version | Text Only | Print | Product List | Glossary On
Versions: 1 2 3 4 5 6 7 8 9 10 11 12 13 14 15 16
000
FTUS44 KOHX 210500
TAFCSV
TAF
KCSV 210520Z 2106/2206 24002KT P6SM SKC
      TEMPO 2108/2112 4SM BR
     FM211500 27010G18KT P6SM SCT040
     FM220000 30003KT P6SM SKC=

USA.gov is the U.S. government's official web portal to all federal, state and local government web resources and services.